Time;durP1;ratioP1;P1;durP2;ratioP2;P2;SDS_P1;SDS_P2;PMS_P1;PMS_P2;Temp;Humidity;BMP_temperature;BMP_pressure;BME280_temperature;BME280_humidity;BME280_pressure;Samples;Min_cycle;Max_cycle;Signal;HPM_P1;HPM_P2
2023/05/21 00:00:12;;;;;;;11.73;5.63;;;;;;;20.02;46.99;100644.95;124064;1099;104255;-81
2023/05/21 00:03:01;;;;;;;8.00;4.70;;;;;;;19.97;46.49;100650.27;124250;1099;104194;-82
2023/05/21 00:05:29;;;;;;;11.93;5.37;;;;;;;19.92;47.06;100641.41;124299;1099;104220;-81
2023/05/21 00:07:58;;;;;;;10.73;4.60;;;;;;;19.88;46.69;100645.86;124251;1098;104223;-80
2023/05/21 00:10:26;;;;;;;12.90;4.80;;;;;;;19.88;46.31;100656.52;124054;1099;104261;-84
2023/05/21 00:12:55;;;;;;;10.10;4.60;;;;;;;19.80;46.58;100646.73;124375;1099;104274;-78
2023/05/21 00:15:23;;;;;;;10.33;4.57;;;;;;;19.74;46.23;100647.58;124036;1099;104237;-80
2023/05/21 00:17:52;;;;;;;8.33;4.47;;;;;;;19.72;46.54;100638.71;124118;1099;104309;-80
2023/05/21 00:20:20;;;;;;;10.53;4.90;;;;;;;19.69;46.89;100647.57;124176;1098;104316;-80
2023/05/21 00:22:49;;;;;;;9.47;4.27;;;;;;;19.65;46.84;100637.83;124208;1099;104338;-80
2023/05/21 00:25:17;;;;;;;12.50;4.77;;;;;;;19.62;46.19;100640.49;123966;1098;104454;-82
2023/05/21 00:27:46;;;;;;;9.77;4.47;;;;;;;19.53;46.37;100636.03;123814;1099;104377;-81
2023/05/21 00:30:15;;;;;;;7.30;4.20;;;;;;;19.47;46.73;100643.13;124055;1099;104239;-80
2023/05/21 00:32:43;;;;;;;9.63;4.17;;;;;;;19.42;46.56;100650.23;124161;1099;104276;-82
2023/05/21 00:35:12;;;;;;;10.53;4.43;;;;;;;19.35;45.80;100644.90;123988;1099;104267;-81
2023/05/21 00:37:41;;;;;;;9.85;4.20;;;;;;;19.30;46.37;100657.28;124088;1099;104265;-81
2023/05/21 00:40:12;;;;;;;10.43;4.40;;;;;;;19.24;46.46;100662.58;124001;1098;104718;-82
2023/05/21 00:42:40;;;;;;;9.37;4.33;;;;;;;19.16;46.48;100654.58;124223;1098;104276;-82
2023/05/21 00:45:10;;;;;;;12.33;4.37;;;;;;;19.15;46.66;100651.91;124206;1099;104238;-82
2023/05/21 00:47:40;;;;;;;10.03;4.70;;;;;;;19.06;46.06;100646.56;124546;1099;104664;-82
2023/05/21 00:50:10;;;;;;;11.23;3.97;;;;;;;18.97;46.30;100635.02;123972;1099;104357;-81
2023/05/21 00:52:40;;;;;;;10.63;4.17;;;;;;;18.93;45.97;100629.69;124055;1099;104424;-84
2023/05/21 00:55:10;;;;;;;12.60;4.40;;;;;;;18.86;46.09;100632.33;124081;1099;104278;-83
2023/05/21 00:57:41;;;;;;;8.57;4.10;;;;;;;18.78;45.97;100625.19;124285;1099;104265;-87
2023/05/21 01:00:13;;;;;;;7.17;4.20;;;;;;;18.67;46.20;100641.09;123877;1102;104271;-84
2023/05/21 01:02:43;;;;;;;8.30;4.37;;;;;;;18.58;45.61;100628.62;123816;1099;104328;-81
2023/05/21 01:05:11;;;;;;;9.23;4.30;;;;;;;18.54;45.80;100636.58;124118;1099;104270;-80
2023/05/21 01:07:42;;;;;;;9.10;4.00;;;;;;;18.50;45.59;100635.69;124100;1099;104246;-81
2023/05/21 01:10:11;;;;;;;9.63;3.87;;;;;;;18.47;45.72;100638.33;124124;1099;104283;-80
2023/05/21 01:12:43;;;;;;;9.30;4.30;;;;;;;18.43;45.94;100636.52;124156;1099;104392;-81
2023/05/21 01:15:12;;;;;;;7.93;4.27;;;;;;;18.40;45.77;100633.84;124025;1099;104689;-80
2023/05/21 01:17:44;;;;;;;10.30;4.57;;;;;;;18.36;45.92;100640.04;124112;1099;104344;-80
2023/05/21 01:20:16;;;;;;;11.40;4.10;;;;;;;18.31;45.67;100632.92;124184;1099;104403;-84
2023/05/21 01:22:50;;;;;;;11.83;3.97;;;;;;;18.31;46.27;100640.89;123828;1099;104226;-83
2023/05/21 01:25:19;;;;;;;9.35;4.20;;;;;;;18.31;45.89;100640.89;123753;1099;104304;-83
2023/05/21 01:27:47;;;;;;;9.10;4.10;;;;;;;18.27;46.00;100639.08;124327;1099;104325;-83
2023/05/21 01:30:17;;;;;;;6.50;3.77;;;;;;;18.20;45.69;100636.38;124310;1099;104271;-89
2023/05/21 01:32:55;;;;;;;11.23;4.40;;;;;;;18.13;45.73;100632.80;123990;1099;104289;-88
2023/05/21 01:35:28;;;;;;;8.55;4.15;;;;;;;18.08;46.06;100640.73;123928;1099;104240;-83
2023/05/21 01:38:04;;;;;;;10.97;4.10;;;;;;;18.06;46.04;100638.93;124164;1099;104341;-86
2023/05/21 01:40:39;;;;;;;12.63;3.90;;;;;;;18.03;45.91;100644.22;124298;1099;104296;-86
2023/05/21 01:43:08;;;;;;;7.60;4.00;;;;;;;17.98;46.04;100641.53;123987;1099;104251;-87
2023/05/21 01:45:39;;;;;;;10.80;4.10;;;;;;;17.95;46.19;100639.77;124118;1099;104222;-85
2023/05/21 01:48:11;;;;;;;10.07;4.30;;;;;;;17.89;46.31;100637.05;124172;1098;104354;-85
2023/05/21 01:50:43;;;;;;;8.67;4.20;;;;;;;17.85;46.21;100635.21;124229;1099;104262;-83
2023/05/21 01:53:11;;;;;;;9.97;4.00;;;;;;;17.82;46.18;100634.30;123874;1099;104431;-85
2023/05/21 01:55:40;;;;;;;10.97;3.87;;;;;;;17.79;46.36;100644.03;124049;1099;104399;-86
2023/05/21 01:58:09;;;;;;;9.77;4.13;;;;;;;17.74;46.21;100635.12;123758;1099;104316;-86
2023/05/21 02:00:39;;;;;;;14.77;4.10;;;;;;;17.71;46.37;100636.87;123928;1099;104332;-85
2023/05/21 02:03:07;;;;;;;8.30;4.00;;;;;;;17.65;46.58;100634.16;124135;1099;104338;-84
2023/05/21 02:05:36;;;;;;;11.60;4.20;;;;;;;17.59;46.24;100629.67;123922;1099;104236;-82
2023/05/21 02:08:07;;;;;;;8.60;4.20;;;;;;;17.53;46.48;100627.88;124098;1099;104733;-85
2023/05/21 02:10:36;;;;;;;11.30;4.40;;;;;;;17.49;46.37;100631.36;124144;1099;104271;-84
2023/05/21 02:13:04;;;;;;;13.33;4.10;;;;;;;17.46;46.75;100625.15;124278;1099;104214;-84
2023/05/21 02:15:33;;;;;;;9.33;4.10;;;;;;;17.44;46.33;100630.44;124559;1099;104236;-83
2023/05/21 02:18:02;;;;;;;10.07;4.13;;;;;;;17.41;46.82;100633.94;124197;1098;104264;-84
2023/05/21 02:20:30;;;;;;;9.57;3.63;;;;;;;17.39;46.90;100635.70;124285;1099;104329;-84
2023/05/21 02:22:59;;;;;;;14.10;4.50;;;;;;;17.39;46.44;100633.05;124271;1099;104328;-84
2023/05/21 02:25:28;;;;;;;12.83;3.80;;;;;;;17.39;46.70;100633.05;124438;1099;104319;-85
2023/05/21 02:27:56;;;;;;;8.53;4.17;;;;;;;17.38;46.37;100630.37;123904;1099;104264;-85
2023/05/21 02:30:25;;;;;;;8.97;4.20;;;;;;;17.33;46.75;100630.33;123997;1099;104249;-86
2023/05/21 02:32:57;;;;;;;9.23;3.90;;;;;;;17.28;46.74;100632.06;124577;1099;104332;-84
2023/05/21 02:35:26;;;;;;;12.33;4.13;;;;;;;17.25;46.74;100621.42;124099;1099;104238;-85
2023/05/21 02:37:57;;;;;;;8.23;4.10;;;;;;;17.23;47.06;100623.14;123955;1098;104197;-85
2023/05/21 02:40:26;;;;;;;9.20;4.10;;;;;;;17.23;46.95;100628.45;124123;1099;105149;-85
2023/05/21 02:42:55;;;;;;;8.33;3.80;;;;;;;17.21;46.67;100625.78;124622;1099;104338;-85
2023/05/21 02:45:23;;;;;;;7.65;3.70;;;;;;;17.19;46.78;100638.14;123994;1099;104171;-85
2023/05/21 02:47:52;;;;;;;7.20;3.90;;;;;;;17.18;47.05;100631.05;123937;1099;104309;-85
2023/05/21 02:50:21;;;;;;;9.27;4.13;;;;;;;17.18;46.65;100633.70;123851;1099;104668;-84
2023/05/21 02:52:54;;;;;;;;;;;;;;;17.15;46.54;100631.02;124349;1099;104217;-85
2023/05/21 02:55:23;;;;;;;8.13;3.90;;;;;;;17.15;46.79;100625.71;124682;1099;104301;-88
2023/05/21 02:57:52;;;;;;;10.13;3.83;;;;;;;17.16;47.46;100629.27;124719;1098;104720;-89
2023/05/21 03:00:20;;;;;;;8.47;3.87;;;;;;;17.15;46.73;100631.02;124454;1099;104280;-85
2023/05/21 03:02:49;;;;;;;12.27;4.20;;;;;;;17.13;46.95;100630.12;123856;1099;104338;-83
2023/05/21 03:05:18;;;;;;;11.47;4.23;;;;;;;17.13;46.85;100631.89;124567;1099;104653;-88
2023/05/21 03:07:46;;;;;;;9.77;3.60;;;;;;;17.14;47.42;100631.00;123996;1099;104233;-85
2023/05/21 03:10:15;;;;;;;10.83;4.00;;;;;;;17.14;47.41;100633.65;123881;1099;104414;-84
2023/05/21 03:12:44;;;;;;;12.67;3.80;;;;;;;17.17;46.84;100639.90;123928;1099;104242;-83
2023/05/21 03:15:14;;;;;;;9.53;3.80;;;;;;;17.20;47.12;100637.28;124316;1099;104333;-85
2023/05/21 03:17:43;;;;;;;9.07;3.47;;;;;;;17.23;47.17;100645.27;123967;1099;104798;-85
2023/05/21 03:20:15;;;;;;;9.20;4.07;;;;;;;17.23;46.88;100641.70;124180;1099;104315;-85
2023/05/21 03:22:45;;;;;;;8.03;3.50;;;;;;;17.27;47.28;100643.53;124211;1099;104248;-85
2023/05/21 03:25:15;;;;;;;8.33;3.80;;;;;;;17.31;47.23;100652.39;124421;1099;104295;-85
2023/05/21 03:27:43;;;;;;;11.20;3.95;;;;;;;17.33;47.20;100651.55;123984;1099;104370;-83
2023/05/21 03:30:24;;;;;;;8.90;3.97;;;;;;;17.35;47.19;100644.48;124329;1099;104220;-86
2023/05/21 03:33:09;;;;;;;9.07;4.10;;;;;;;17.38;47.03;100640.98;123925;1099;104229;-85
2023/05/21 03:35:39;;;;;;;8.05;3.75;;;;;;;17.41;47.44;100651.63;123816;1099;104348;-85
2023/05/21 03:38:08;;;;;;;7.53;3.63;;;;;;;17.42;47.42;100646.34;124005;1099;104267;-84
2023/05/21 03:40:36;;;;;;;9.27;3.63;;;;;;;17.47;47.25;100648.13;124140;1099;104269;-85
2023/05/21 03:43:05;;;;;;;5.90;3.60;;;;;;;17.48;47.38;100639.30;124083;1099;104437;-84
2023/05/21 03:45:34;;;;;;;7.37;3.50;;;;;;;17.53;47.12;100649.10;123872;1099;104351;-84
2023/05/21 03:48:26;;;;;;;7.17;3.47;;;;;;;17.56;47.40;100645.56;124017;1099;104386;-85
2023/05/21 03:50:55;;;;;;;7.90;3.67;;;;;;;17.59;46.94;100648.25;124223;1099;104300;-86
2023/05/21 03:53:25;;;;;;;9.10;3.90;;;;;;;17.58;47.31;100644.72;124147;1099;104316;-84
2023/05/21 03:55:54;;;;;;;7.67;3.60;;;;;;;17.58;47.12;100643.84;124233;1099;104233;-87
2023/05/21 03:58:24;;;;;;;7.60;3.70;;;;;;;17.57;47.15;100645.58;124184;1099;104322;-86
2023/05/21 04:00:52;;;;;;;6.70;3.50;;;;;;;17.58;47.27;100657.11;124078;1099;104424;-83
2023/05/21 04:03:21;;;;;;;7.80;3.63;;;;;;;17.59;47.42;100646.50;123848;1102;104322;-84
2023/05/21 04:05:50;;;;;;;9.90;3.93;;;;;;;17.65;47.52;100643.00;123759;1099;104268;-85
2023/05/21 04:08:19;;;;;;;7.40;3.60;;;;;;;17.68;47.58;100648.33;124283;1099;104389;-85
2023/05/21 04:10:47;;;;;;;9.80;3.90;;;;;;;17.71;47.46;100644.83;123909;1099;104309;-84
2023/05/21 04:13:17;;;;;;;7.70;3.53;;;;;;;17.74;47.38;100642.20;124566;1099;104262;-83
2023/05/21 04:15:45;;;;;;;11.03;4.10;;;;;;;17.77;47.36;100640.45;123905;1099;104431;-84
2023/05/21 04:18:15;;;;;;;9.27;3.40;;;;;;;17.79;47.64;100646.69;124637;1099;104677;-85
2023/05/21 04:20:44;;;;;;;9.90;3.73;;;;;;;17.82;47.38;100650.23;124407;1099;104177;-83
2023/05/21 04:23:13;;;;;;;9.47;4.13;;;;;;;17.87;47.59;100648.49;124496;1099;104261;-87
2023/05/21 04:25:42;;;;;;;7.37;3.40;;;;;;;17.88;47.62;100651.20;124265;1099;104345;-82
2023/05/21 04:28:10;;;;;;;9.90;3.67;;;;;;;17.93;47.65;100648.58;123824;1099;104318;-85
2023/05/21 04:30:39;;;;;;;8.13;3.50;;;;;;;17.98;47.46;100653.92;124530;1099;104328;-86
2023/05/21 04:33:08;;;;;;;9.57;3.60;;;;;;;17.97;47.49;100653.05;124250;1099;104255;-84
2023/05/21 04:35:43;;;;;;;8.50;3.80;;;;;;;17.98;47.37;100648.61;124192;1099;104299;-85
2023/05/21 04:38:12;;;;;;;8.90;3.80;;;;;;;18.03;47.54;100649.53;124103;1099;104245;-84
2023/05/21 04:40:42;;;;;;;7.40;3.63;;;;;;;18.09;47.62;100641.61;124234;1099;104284;-84
2023/05/21 04:43:10;;;;;;;9.20;3.57;;;;;;;18.12;47.52;100645.20;124383;1099;104340;-87
2023/05/21 04:45:40;;;;;;;7.23;3.60;;;;;;;18.11;47.35;100637.22;124204;1099;105689;-83
2023/05/21 04:48:09;;;;;;;9.93;3.37;;;;;;;18.13;47.43;100646.95;124243;1099;104390;-85
2023/05/21 04:50:40;;;;;;;6.85;3.70;;;;;;;18.18;47.29;100636.36;124292;1098;104338;-84
2023/05/21 04:53:09;;;;;;;7.67;3.50;;;;;;;18.21;47.36;100640.81;124436;1099;104262;-84
2023/05/21 04:55:38;;;;;;;9.73;3.93;;;;;;;18.27;47.52;100639.08;124020;1099;104341;-81
2023/05/21 04:58:09;;;;;;;8.40;3.33;;;;;;;18.35;47.65;100631.16;124340;1099;104293;-87
2023/05/21 05:00:40;;;;;;;8.43;3.60;;;;;;;18.39;47.69;100629.44;123903;1099;104265;-87
2023/05/21 05:03:10;;;;;;;9.67;3.40;;;;;;;18.40;47.77;100640.06;124406;1099;104322;-88
2023/05/21 05:05:39;;;;;;;10.30;3.80;;;;;;;18.41;47.42;100633.86;124597;1099;104238;-81
2023/05/21 05:08:08;;;;;;;9.97;4.03;;;;;;;18.45;47.53;100632.09;124353;1099;104312;-86
2023/05/21 05:10:36;;;;;;;11.85;4.15;;;;;;;18.46;47.19;100641.84;124263;1099;104325;-85
2023/05/21 05:13:05;;;;;;;8.97;4.20;;;;;;;18.47;47.68;100643.64;124016;1099;104344;-84
2023/05/21 05:15:33;;;;;;;9.40;3.90;;;;;;;18.54;47.34;100636.58;123934;1099;104238;-84
2023/05/21 05:18:03;;;;;;;10.77;4.10;;;;;;;18.62;47.16;100633.09;124682;1099;104262;-88
2023/05/21 05:20:31;;;;;;;6.57;4.00;;;;;;;18.71;47.02;100639.32;124316;1099;104171;-88
2023/05/21 05:23:00;;;;;;;10.50;3.80;;;;;;;18.74;47.40;100632.23;124450;1099;104174;-89
2023/05/21 05:25:28;;;;;;;6.57;3.50;;;;;;;18.83;46.83;100634.06;124604;1099;104166;-89
2023/05/21 05:27:57;;;;;;;6.63;3.50;;;;;;;18.89;47.04;100638.56;124236;1099;104403;-88
2023/05/21 05:30:25;;;;;;;7.90;3.20;;;;;;;18.92;46.59;100636.79;124744;1099;104272;-86
2023/05/21 05:32:55;;;;;;;11.90;3.70;;;;;;;18.92;46.51;100636.79;123990;1102;104712;-87
2023/05/21 05:35:23;;;;;;;7.17;3.50;;;;;;;18.86;46.49;100645.62;124829;1099;104248;-87
2023/05/21 05:37:52;;;;;;;11.33;4.00;;;;;;;18.82;46.65;100643.81;124874;1099;104325;-89
2023/05/21 05:40:21;;;;;;;10.37;4.10;;;;;;;18.84;46.92;100649.14;124257;1099;104309;-87
2023/05/21 05:42:51;;;;;;;10.07;3.93;;;;;;;18.84;47.26;100643.83;124445;1099;104665;-88
2023/05/21 05:45:20;;;;;;;6.53;3.40;;;;;;;18.83;46.93;100634.94;123988;1099;104213;-88
2023/05/21 05:47:49;;;;;;;8.77;3.90;;;;;;;18.84;46.72;100631.44;124558;1099;104245;-89
2023/05/21 05:50:18;;;;;;;7.47;3.67;;;;;;;18.88;47.30;100637.65;124668;1099;104265;-86
2023/05/21 05:52:48;;;;;;;7.03;3.60;;;;;;;18.95;47.35;100642.12;124039;1099;104328;-88
2023/05/21 05:55:17;;;;;;;7.47;3.97;;;;;;;19.02;46.83;100640.36;124204;1099;104261;-88
2023/05/21 05:57:46;;;;;;;4.97;3.23;;;;;;;19.09;47.02;100638.59;124610;1099;104208;-85
2023/05/21 06:00:17;;;;;;;12.23;3.60;;;;;;;19.20;47.03;100639.54;124503;1100;104300;-86
2023/05/21 06:02:47;;;;;;;7.00;3.60;;;;;;;19.27;46.99;100635.98;124072;1102;104328;-87
2023/05/21 06:05:16;;;;;;;6.97;3.73;;;;;;;19.37;47.57;100631.59;123969;1099;104990;-85
2023/05/21 06:07:44;;;;;;;8.33;3.80;;;;;;;19.49;47.52;100628.05;124406;1099;104242;-86
2023/05/21 06:10:13;;;;;;;7.47;3.60;;;;;;;19.63;47.07;100623.61;124236;1098;104229;-81
2023/05/21 06:12:41;;;;;;;12.63;4.13;;;;;;;19.67;47.47;100614.75;124007;1099;104345;-87
2023/05/21 06:15:11;;;;;;;8.00;3.60;;;;;;;19.75;47.35;100612.97;124051;1099;104317;-84
2023/05/21 06:17:40;;;;;;;6.37;3.60;;;;;;;19.87;46.91;100611.24;124614;1099;104242;-85
2023/05/21 06:20:11;;;;;;;6.07;3.80;;;;;;;19.94;46.70;100602.34;124141;1099;104271;-85
2023/05/21 06:22:39;;;;;;;8.60;3.43;;;;;;;19.98;46.91;100605.91;124528;1099;104648;-84
2023/05/21 06:25:10;;;;;;;6.97;3.40;;;;;;;20.06;46.84;100598.78;124373;1099;104319;-87
2023/05/21 06:27:38;;;;;;;7.87;3.60;;;;;;;20.08;46.71;100594.33;124312;1099;102087;-88
2023/05/21 06:30:11;;;;;;;8.53;3.83;;;;;;;20.11;46.80;100592.54;124953;1099;104270;-89
2023/05/21 06:32:39;;;;;;;14.03;3.80;;;;;;;20.18;47.23;100593.44;124202;1099;104252;-87
2023/05/21 06:35:09;;;;;;;8.37;3.70;;;;;;;20.23;46.67;100588.09;124802;1099;104168;-86
2023/05/21 06:37:38;;;;;;;7.90;3.80;;;;;;;20.28;46.23;100594.29;124369;1099;104294;-86
2023/05/21 06:40:09;;;;;;;7.27;3.57;;;;;;;20.36;46.22;100595.14;125168;1099;104241;-84
2023/05/21 06:42:39;;;;;;;9.00;3.93;;;;;;;20.45;47.10;100588.91;126984;1099;104044;-83
2023/05/21 06:45:43;;;;;;;8.47;3.83;;;;;;;20.60;46.30;100591.52;126132;1102;102452;-85
2023/05/21 06:48:31;;;;;;;7.63;3.90;;;;;;;20.74;47.19;100582.59;126329;1099;101659;-84
2023/05/21 06:50:59;;;;;;;6.20;3.63;;;;;;;20.80;46.29;100579.89;127166;1099;102023;-86
2023/05/21 06:53:28;;;;;;;12.30;3.90;;;;;;;20.92;46.36;100579.83;126535;1099;104230;-83
2023/05/21 06:55:56;;;;;;;9.37;4.07;;;;;;;21.00;45.76;100578.03;125437;1099;104256;-84
2023/05/21 06:58:40;;;;;;;12.10;4.33;;;;;;;21.06;45.79;100565.53;125851;1099;104268;-85
2023/05/21 07:01:10;;;;;;;8.93;4.20;;;;;;;21.18;45.92;100566.33;126580;1099;104184;-84
2023/05/21 07:03:39;;;;;;;11.07;4.40;;;;;;;21.34;46.39;100567.09;126159;1098;104156;-86
2023/05/21 07:06:10;;;;;;;11.87;4.17;;;;;;;21.49;45.86;100568.81;124383;1099;104262;-82
2023/05/21 07:08:39;;;;;;;6.80;4.07;;;;;;;21.63;45.75;100568.69;123946;1099;104388;-85
2023/05/21 07:11:07;;;;;;;10.00;3.80;;;;;;;21.77;45.61;100564.99;124540;1099;104236;-85
2023/05/21 07:13:37;;;;;;;8.47;3.80;;;;;;;21.93;45.60;100560.41;124196;1099;104242;-86
2023/05/21 07:16:06;;;;;;;9.73;4.57;;;;;;;22.15;45.49;100569.95;124461;1099;104178;-85
2023/05/21 07:18:35;;;;;;;10.40;4.13;;;;;;;22.29;45.62;100563.58;124089;1099;104874;-84
2023/05/21 07:21:04;;;;;;;6.63;3.90;;;;;;;22.34;44.65;100561.77;124327;1099;104427;-84
2023/05/21 07:23:33;;;;;;;10.03;4.00;;;;;;;22.47;44.91;100562.49;124196;1099;104274;-84
2023/05/21 07:26:02;;;;;;;11.53;4.37;;;;;;;22.58;44.10;100569.48;124057;1099;104287;-86
2023/05/21 07:28:30;;;;;;;10.50;4.00;;;;;;;22.72;44.52;100568.41;124046;1099;104428;-86
2023/05/21 07:30:59;;;;;;;11.40;4.00;;;;;;;22.89;44.10;100569.08;124124;1099;104340;-84
2023/05/21 07:33:34;;;;;;;8.30;4.20;;;;;;;23.03;44.05;100554.60;124100;1099;104357;-83
2023/05/21 07:36:03;;;;;;;6.70;3.77;;;;;;;23.16;43.95;100553.55;124069;1099;104315;-86
2023/05/21 07:38:32;;;;;;;9.15;4.10;;;;;;;23.27;43.49;100548.91;123922;1099;104325;-85
2023/05/21 07:41:01;;;;;;;12.03;4.27;;;;;;;23.47;43.86;100553.94;124593;1099;104242;-84
2023/05/21 07:43:30;;;;;;;9.57;3.80;;;;;;;23.61;43.73;100553.70;124205;1099;104277;-83
2023/05/21 07:45:59;;;;;;;8.73;4.20;;;;;;;23.61;43.41;100548.35;124235;1099;104262;-85
2023/05/21 07:48:28;;;;;;;8.23;4.43;;;;;;;23.67;43.45;100539.34;123872;1101;104366;-81
2023/05/21 07:50:58;;;;;;;8.10;3.80;;;;;;;23.80;43.28;100550.70;124335;1099;110890;-89
2023/05/21 07:53:31;;;;;;;9.77;4.20;;;;;;;23.85;42.93;100543.49;124589;1099;104159;-83
2023/05/21 07:56:01;;;;;;;7.72;3.98;;;;;;;23.96;42.91;100540.61;124351;1099;104169;-83
2023/05/21 07:58:31;;;;;;;11.90;4.17;;;;;;;24.07;42.83;100546.64;124484;1099;104443;-87
2023/05/21 08:01:00;;;;;;;8.17;4.23;;;;;;;23.97;42.33;100540.59;124382;1099;104223;-84
2023/05/21 08:03:30;;;;;;;11.97;4.10;;;;;;;24.08;42.47;100542.19;123964;1099;104223;-87
2023/05/21 08:05:59;;;;;;;8.13;4.00;;;;;;;24.07;42.21;100541.28;124284;1099;104322;-83
2023/05/21 08:08:28;;;;;;;10.03;4.20;;;;;;;24.15;42.10;100535.77;123999;1099;104329;-85
2023/05/21 08:10:57;;;;;;;7.05;3.90;;;;;;;24.32;42.29;100538.98;124235;1099;104319;-85
2023/05/21 08:13:27;;;;;;;7.57;3.90;;;;;;;24.52;42.05;100535.02;124175;1099;104302;-84
2023/05/21 08:15:56;;;;;;;9.13;4.07;;;;;;;24.71;42.45;100536.44;124222;1099;104711;-85
2023/05/21 08:18:25;;;;;;;9.03;4.10;;;;;;;24.85;41.67;100548.64;124664;1099;104284;-84
2023/05/21 08:20:55;;;;;;;8.07;4.20;;;;;;;24.76;41.37;100545.25;124254;1099;104242;-90
2023/05/21 08:23:25;;;;;;;9.43;4.20;;;;;;;24.76;41.70;100542.57;124302;1099;104347;-85
2023/05/21 08:25:56;;;;;;;6.03;3.87;;;;;;;24.88;41.45;100541.39;124539;1099;104354;-86
2023/05/21 08:28:27;;;;;;;10.20;3.80;;;;;;;24.84;41.33;100544.17;124528;1099;104277;-82
2023/05/21 08:30:56;;;;;;;9.27;4.30;;;;;;;25.00;40.98;100544.73;123913;1099;104365;-84
2023/05/21 08:33:25;;;;;;;10.13;4.20;;;;;;;25.07;41.15;100539.19;124199;1099;104294;-84
2023/05/21 08:35:55;;;;;;;10.80;4.13;;;;;;;25.16;41.21;100534.50;124818;1098;104347;-87
2023/05/21 08:38:31;;;;;;;8.00;3.70;;;;;;;25.26;40.85;100538.74;124210;1098;104351;-88
2023/05/21 08:41:22;;;;;;;8.90;4.20;;;;;;;25.27;41.07;100537.80;124351;1099;104261;-86
2023/05/21 08:43:55;;;;;;;9.77;4.03;;;;;;;25.32;40.77;100541.28;124219;1099;104261;-85
2023/05/21 08:46:25;;;;;;;8.67;4.30;;;;;;;25.38;40.25;100538.45;124371;1099;104268;-85
2023/05/21 08:48:54;;;;;;;11.13;4.03;;;;;;;25.38;40.19;100538.45;124627;1099;104335;-86
2023/05/21 08:51:23;;;;;;;8.93;3.90;;;;;;;25.43;39.97;100533.86;123935;1099;104153;-86
2023/05/21 08:53:55;;;;;;;10.40;3.93;;;;;;;25.43;40.04;100538.33;124293;1099;104325;-86
2023/05/21 08:56:25;;;;;;;8.67;4.30;;;;;;;25.39;40.09;100528.60;124195;1098;104325;-84
2023/05/21 08:58:56;;;;;;;8.40;3.83;;;;;;;25.45;40.09;100542.75;124492;1099;104255;-86
2023/05/21 09:01:28;;;;;;;7.30;3.90;;;;;;;25.50;39.76;100531.89;124543;1099;104396;-87
2023/05/21 09:04:05;;;;;;;9.37;3.90;;;;;;;25.48;39.71;100539.12;125006;1099;102111;-86
2023/05/21 09:06:34;;;;;;;8.30;3.90;;;;;;;25.44;39.64;100516.80;125115;1099;104267;-90
2023/05/21 09:09:13;;;;;;;9.50;3.90;;;;;;;25.56;40.00;100530.86;124479;1098;104310;-84
2023/05/21 09:11:46;;;;;;;8.50;4.10;;;;;;;25.57;39.79;100521.86;124385;1099;104726;-85
2023/05/21 09:14:18;;;;;;;10.83;4.10;;;;;;;25.42;39.85;100529.40;124453;1099;104265;-88
2023/05/21 09:17:00;;;;;;;9.43;4.10;;;;;;;25.39;39.96;100523.23;124378;1099;104275;-85
2023/05/21 09:19:30;;;;;;;10.43;3.83;;;;;;;25.39;40.13;100525.92;124308;1099;104220;-85
2023/05/21 09:22:03;;;;;;;9.33;4.07;;;;;;;25.49;40.41;100522.05;124860;1099;104245;-86
2023/05/21 09:24:32;;;;;;;10.23;3.93;;;;;;;25.58;39.97;100526.32;124542;1099;104255;-82
2023/05/21 09:27:01;;;;;;;11.03;4.63;;;;;;;25.64;39.55;100536.91;124691;1099;104310;-85
2023/05/21 09:29:33;;;;;;;10.87;4.10;;;;;;;25.63;39.44;100527.98;124607;1099;104241;-82
2023/05/21 09:32:07;;;;;;;6.03;3.80;;;;;;;25.61;39.76;100526.24;124708;1099;104249;-85
2023/05/21 09:34:37;;;;;;;8.67;3.80;;;;;;;25.66;39.81;100524.30;124014;1099;104258;-86
2023/05/21 09:37:08;;;;;;;9.40;4.17;;;;;;;25.73;39.45;100516.98;124022;1099;104200;-83
2023/05/21 09:39:41;;;;;;;7.07;4.00;;;;;;;25.87;39.83;100522.86;123913;1099;104357;-83
2023/05/21 09:42:11;;;;;;;8.87;4.00;;;;;;;25.98;39.65;100514.53;124253;1099;104277;-86
2023/05/21 09:44:39;;;;;;;9.97;4.00;;;;;;;25.94;39.55;100520.88;124229;1099;104334;-85
2023/05/21 09:47:08;;;;;;;11.87;4.13;;;;;;;25.96;39.59;100519.92;124483;1099;104395;-87
2023/05/21 09:49:38;;;;;;;7.43;3.80;;;;;;;25.94;39.36;100531.63;124806;1098;104281;-85
2023/05/21 09:52:07;;;;;;;7.87;4.20;;;;;;;25.79;39.42;100523.06;124206;1098;104389;-85
2023/05/21 09:54:35;;;;;;;10.67;4.20;;;;;;;25.80;39.68;100526.62;124357;1098;104270;-83
2023/05/21 09:57:04;;;;;;;7.30;3.90;;;;;;;25.72;39.38;100521.45;124201;1099;104242;-83
2023/05/21 09:59:39;;;;;;;9.03;4.03;;;;;;;25.79;39.49;100517.70;124558;1098;104245;-83
2023/05/21 10:02:19;;;;;;;10.20;4.50;;;;;;;25.90;39.70;100506.66;124153;1099;104318;-83
2023/05/21 10:04:50;;;;;;;9.53;4.57;;;;;;;25.95;39.77;100511.91;124398;1099;104329;-86
2023/05/21 10:07:24;;;;;;;9.83;4.37;;;;;;;25.88;39.36;100515.67;124578;1098;104312;-84
2023/05/21 10:09:55;;;;;;;11.27;4.40;;;;;;;25.90;39.22;100509.34;124655;1099;104229;-85
2023/05/21 10:12:24;;;;;;;9.47;4.60;;;;;;;26.04;39.41;100506.30;124765;1099;104239;-86
2023/05/21 10:15:00;;;;;;;11.20;4.20;;;;;;;26.13;39.08;100511.42;124241;1099;104318;-82
2023/05/21 10:17:30;;;;;;;10.15;4.10;;;;;;;26.23;38.89;100492.33;124158;1099;104290;-85
2023/05/21 10:20:00;;;;;;;10.63;4.57;;;;;;;26.20;39.35;100498.66;124402;1099;104341;-84
2023/05/21 10:22:29;;;;;;;10.70;4.37;;;;;;;26.20;39.52;100506.73;124350;1099;104344;-83
2023/05/21 10:24:58;;;;;;;9.13;4.30;;;;;;;26.22;39.33;100502.18;124269;1099;104750;-85
2023/05/21 10:27:28;;;;;;;8.30;4.07;;;;;;;26.22;39.00;100499.49;124398;1099;104255;-86
2023/05/21 10:29:58;;;;;;;12.77;4.57;;;;;;;26.21;38.75;100496.84;124372;1099;104325;-85
2023/05/21 10:32:27;;;;;;;9.50;4.20;;;;;;;26.21;39.26;100484.30;124435;1099;104290;-86
2023/05/21 10:34:57;;;;;;;9.83;3.87;;;;;;;26.23;39.32;100495.02;124752;1099;104264;-88
2023/05/21 10:37:27;;;;;;;8.20;4.30;;;;;;;26.17;38.95;100491.56;124428;1099;104718;-83
2023/05/21 10:39:56;;;;;;;10.57;4.27;;;;;;;26.22;39.22;100496.80;124626;1099;104309;-90
2023/05/21 10:43:02;;;;;;;9.13;4.27;;;;;;;26.15;38.97;100496.11;124684;1099;104677;-86
2023/05/21 10:45:46;;;;;;;8.15;3.80;;;;;;;25.87;38.37;100497.77;124172;1099;104147;-86
2023/05/21 10:48:35;;;;;;;10.30;4.60;;;;;;;25.69;38.78;100494.67;124883;1099;102102;-85
2023/05/21 10:51:20;;;;;;;6.40;4.33;;;;;;;25.70;39.26;100495.58;124673;1099;104238;-88
2023/05/21 10:54:14;;;;;;;11.37;4.20;;;;;;;25.61;39.44;100483.25;124395;1099;104284;-86
2023/05/21 10:56:53;;;;;;;11.30;3.90;;;;;;;25.59;39.52;100482.42;124778;1099;104245;-87
2023/05/21 10:59:35;;;;;;;6.40;3.90;;;;;;;25.61;39.15;100481.44;124299;1099;104264;-86
2023/05/21 11:02:06;;;;;;;11.27;4.70;;;;;;;25.65;39.16;100476.89;125022;1099;104194;-83
2023/05/21 11:04:38;;;;;;;9.30;4.47;;;;;;;25.72;39.82;100473.09;124442;1099;104354;-86
2023/05/21 11:07:07;;;;;;;8.70;4.17;;;;;;;25.80;39.65;100473.78;124336;1099;104282;-87
2023/05/21 11:09:37;;;;;;;8.03;4.17;;;;;;;25.91;39.38;100472.58;124769;1099;104204;-87
2023/05/21 11:12:08;;;;;;;6.57;4.20;;;;;;;25.88;39.35;100486.10;124615;1099;104427;-85
2023/05/21 11:14:38;;;;;;;10.35;4.40;;;;;;;25.94;39.38;100472.49;124014;1099;104345;-83
2023/05/21 11:17:12;;;;;;;10.43;4.30;;;;;;;26.03;39.18;100477.64;124691;1099;104239;-87
2023/05/21 11:19:42;;;;;;;7.70;4.40;;;;;;;25.99;39.39;100482.23;124793;1099;104255;-86
2023/05/21 11:22:21;;;;;;;7.13;4.30;;;;;;;25.78;39.39;100472.92;125072;1099;104241;-84